createdAt,value
2017-04-24T00:00:11.437Z,7.45
2017-04-24T00:01:08.634Z,7.25
2017-04-24T00:02:05.818Z,6.12
2017-04-24T00:03:03.019Z,7.67
2017-04-24T00:04:00.192Z,9.50
2017-04-24T00:04:57.354Z,5.77
2017-04-24T00:05:54.514Z,7.30
2017-04-24T00:06:51.688Z,4.90
2017-04-24T00:07:48.870Z,7.68
2017-04-24T00:08:46.073Z,5.03
2017-04-24T00:09:43.959Z,7.17
2017-04-24T00:10:41.115Z,7.10
2017-04-24T00:11:38.277Z,7.67
2017-04-24T00:12:35.450Z,6.27
2017-04-24T00:13:32.938Z,7.42
2017-04-24T00:14:30.139Z,7.98
2017-04-24T00:15:27.297Z,9.62
2017-04-24T00:16:24.457Z,6.83
2017-04-24T00:17:21.631Z,6.92
2017-04-24T00:18:18.803Z,10.05
2017-04-24T00:19:16.006Z,8.37
2017-04-24T00:20:13.176Z,6.83
2017-04-24T00:21:10.343Z,7.90
2017-04-24T00:22:07.539Z,8.30
2017-04-24T00:23:04.715Z,6.58
2017-04-24T00:24:01.886Z,7.23
2017-04-24T00:24:59.078Z,5.95
2017-04-24T00:25:56.248Z,7.90
2017-04-24T00:26:53.418Z,10.47
2017-04-24T00:27:50.582Z,5.68
2017-04-24T00:28:47.751Z,7.27
2017-04-24T00:29:44.958Z,11.33
2017-04-24T00:30:42.126Z,9.13
2017-04-24T00:31:39.290Z,7.95
2017-04-24T00:32:36.458Z,6.80
2017-04-24T00:33:34.500Z,6.28
2017-04-24T00:34:31.676Z,7.43
2017-04-24T00:35:28.870Z,5.67
2017-04-24T00:36:26.037Z,6.77
2017-04-24T00:37:23.210Z,8.50
2017-04-24T00:38:20.392Z,5.58
2017-04-24T00:39:17.562Z,5.62
2017-04-24T00:40:14.766Z,6.87
2017-04-24T00:41:11.933Z,6.20
2017-04-24T00:42:09.106Z,11.95
2017-04-24T00:43:06.266Z,5.15
2017-04-24T00:44:03.427Z,6.13
2017-04-24T00:45:00.607Z,6.20
2017-04-24T00:45:57.790Z,6.07
2017-04-24T00:46:54.954Z,5.58
2017-04-24T00:47:52.119Z,8.07
2017-04-24T00:48:49.286Z,8.23
2017-04-24T00:49:46.441Z,5.70
2017-04-24T00:50:43.666Z,7.92
2017-04-24T00:51:40.834Z,7.20
2017-04-24T00:52:37.990Z,7.50
2017-04-24T00:53:35.158Z,7.10
2017-04-24T00:54:32.339Z,7.18
2017-04-24T00:55:29.505Z,12.20
2017-04-24T00:56:26.693Z,6.95
2017-04-24T00:57:23.854Z,8.82
2017-04-24T00:58:21.023Z,7.12
2017-04-24T00:59:18.191Z,6.50
2017-04-24T01:00:15.362Z,9.78
2017-04-24T01:01:12.546Z,8.68
2017-04-24T01:02:09.749Z,7.88
2017-04-24T01:03:06.914Z,7.23
2017-04-24T01:04:06.345Z,6.97
2017-04-24T01:05:03.528Z,6.70
2017-04-24T01:06:00.690Z,7.87
2017-04-24T01:06:57.866Z,10.13
2017-04-24T01:07:55.058Z,5.72
2017-04-24T01:08:52.247Z,7.95
2017-04-24T01:09:49.406Z,7.63
2017-04-24T01:10:46.572Z,7.92
2017-04-24T01:11:43.741Z,6.08
2017-04-24T01:12:40.914Z,4.90
2017-04-24T01:13:38.139Z,9.67
2017-04-24T01:14:35.305Z,5.97
2017-04-24T01:15:32.471Z,7.53
2017-04-24T01:16:29.638Z,7.40
2017-04-24T01:17:26.806Z,10.03
2017-04-24T01:18:23.962Z,7.40
2017-04-24T01:19:21.166Z,7.43
2017-04-24T01:20:18.340Z,9.32
2017-04-24T01:21:15.506Z,4.98
2017-04-24T01:22:13.014Z,8.27
2017-04-24T01:23:10.182Z,10.20
2017-04-24T01:24:07.350Z,8.55
2017-04-24T01:25:04.550Z,5.85
2017-04-24T01:26:01.732Z,8.48
2017-04-24T01:26:58.907Z,7.78
2017-04-24T01:27:56.070Z,7.37
2017-04-24T01:28:53.251Z,8.05
2017-04-24T01:29:50.425Z,7.10
2017-04-24T01:30:47.623Z,7.65
2017-04-24T01:31:44.806Z,7.28
2017-04-24T01:32:41.975Z,6.12
2017-04-24T01:33:39.147Z,8.15
2017-04-24T01:34:36.542Z,5.88
2017-04-24T01:35:33.754Z,6.73
2017-04-24T01:36:30.926Z,6.02
2017-04-24T01:37:28.098Z,8.83
2017-04-24T01:38:25.262Z,6.78
2017-04-24T01:39:22.426Z,5.90
2017-04-24T01:40:19.599Z,8.90
2017-04-24T01:41:16.800Z,4.60
2017-04-24T01:42:13.971Z,7.20
2017-04-24T01:43:11.164Z,6.70
2017-04-24T01:44:08.334Z,6.08
2017-04-24T01:45:05.511Z,5.82
2017-04-24T01:46:02.714Z,5.20
2017-04-24T01:46:59.901Z,6.62
2017-04-24T01:47:57.066Z,4.38
2017-04-24T01:48:54.242Z,6.08
2017-04-24T01:49:51.422Z,7.78
2017-04-24T01:50:48.591Z,6.35
2017-04-24T01:51:45.794Z,8.67
2017-04-24T01:52:42.971Z,6.65
2017-04-24T01:53:40.139Z,7.43
2017-04-24T01:54:37.309Z,5.75
2017-04-24T01:55:34.478Z,5.48
2017-04-24T01:56:31.694Z,7.45
2017-04-24T01:57:28.891Z,6.42
2017-04-24T01:58:26.062Z,5.27
2017-04-24T01:59:23.235Z,5.98
2017-04-24T02:00:20.435Z,12.10
2017-04-24T02:01:17.612Z,10.12
2017-04-24T02:02:14.826Z,4.53
2017-04-24T02:03:12.023Z,11.10
2017-04-24T02:04:09.211Z,5.82
2017-04-24T02:05:06.386Z,5.33
2017-04-24T02:06:03.825Z,5.13
2017-04-24T02:07:01.030Z,7.92
2017-04-24T02:07:58.231Z,6.17
2017-04-24T02:08:55.405Z,5.28
2017-04-24T02:09:52.587Z,4.50
2017-04-24T02:10:49.835Z,7.57
2017-04-24T02:11:47.002Z,7.58
2017-04-24T02:12:44.202Z,9.27
2017-04-24T02:13:41.379Z,7.55
2017-04-24T02:14:38.554Z,11.13
2017-04-24T02:15:35.730Z,6.95
2017-04-24T02:16:32.907Z,6.63
2017-04-24T02:17:30.074Z,7.57
2017-04-24T02:18:27.270Z,4.13
2017-04-24T02:19:24.455Z,7.93
2017-04-24T02:20:21.622Z,10.00
2017-04-24T02:21:18.803Z,7.47
2017-04-24T02:22:16.011Z,5.35
2017-04-24T02:23:13.178Z,7.17
2017-04-24T02:24:10.370Z,7.05
2017-04-24T02:25:07.533Z,4.97
2017-04-24T02:26:04.694Z,8.88
2017-04-24T02:27:01.858Z,6.65
2017-04-24T02:27:59.030Z,9.60
2017-04-24T02:28:56.195Z,11.92
2017-04-24T02:29:53.387Z,5.52
2017-04-24T02:30:50.558Z,4.27
2017-04-24T02:31:47.714Z,5.63
2017-04-24T02:32:44.898Z,8.33
2017-04-24T02:33:42.058Z,9.62
2017-04-24T02:34:39.231Z,7.18
2017-04-24T02:35:36.433Z,7.07
2017-04-24T02:36:33.598Z,6.42
2017-04-24T02:37:30.802Z,5.60
2017-04-24T02:38:27.970Z,9.20
2017-04-24T02:39:25.138Z,4.52
2017-04-24T02:40:22.306Z,8.95
2017-04-24T02:41:19.504Z,6.82
2017-04-24T02:42:16.674Z,10.52
2017-04-24T02:43:13.838Z,7.75
2017-04-24T02:44:10.994Z,4.48
2017-04-24T02:45:08.169Z,10.62
2017-04-24T02:46:05.335Z,3.82
2017-04-24T02:47:02.531Z,3.77
2017-04-24T02:47:59.689Z,7.55
2017-04-24T02:48:56.856Z,4.47
2017-04-24T02:49:54.018Z,6.43
2017-04-24T02:50:51.175Z,6.28
2017-04-24T02:51:48.374Z,6.75
2017-04-24T02:52:45.550Z,4.75
2017-04-24T02:53:42.725Z,6.22
2017-04-24T02:54:39.926Z,6.17
2017-04-24T02:55:37.089Z,4.52
2017-04-24T02:56:34.247Z,6.23
2017-04-24T02:57:31.438Z,7.90
2017-04-24T02:58:28.598Z,9.50
2017-04-24T02:59:25.758Z,8.63
2017-04-24T03:00:22.943Z,5.68
2017-04-24T03:01:20.118Z,8.65
2017-04-24T03:02:17.319Z,7.47
2017-04-24T03:03:14.485Z,8.48
2017-04-24T03:04:11.954Z,8.42
2017-04-24T03:05:09.127Z,8.95
2017-04-24T03:06:06.442Z,7.00
2017-04-24T03:07:03.627Z,13.05
2017-04-24T03:08:00.812Z,6.53
2017-04-24T03:08:57.979Z,7.35
2017-04-24T03:09:55.134Z,6.18
2017-04-24T03:10:52.302Z,9.13
2017-04-24T03:11:49.466Z,8.28
2017-04-24T03:12:46.670Z,10.00
2017-04-24T03:13:43.831Z,9.12
2017-04-24T03:14:40.994Z,5.45
2017-04-24T03:15:38.154Z,4.43
2017-04-24T03:16:35.319Z,7.33
2017-04-24T03:17:32.484Z,5.38
2017-04-24T03:18:29.663Z,7.73
2017-04-24T03:19:26.836Z,5.23
2017-04-24T03:20:24.235Z,7.35
2017-04-24T03:21:21.406Z,6.95
2017-04-24T03:22:18.614Z,5.75
2017-04-24T03:23:15.814Z,6.45
2017-04-24T03:24:12.998Z,7.15
2017-04-24T03:25:10.162Z,4.70
2017-04-24T03:26:07.338Z,5.20
2017-04-24T03:27:04.506Z,9.43
2017-04-24T03:28:01.680Z,5.02
2017-04-24T03:28:58.873Z,5.97
2017-04-24T03:29:56.042Z,6.58
2017-04-24T03:30:53.210Z,6.67
2017-04-24T03:31:50.400Z,4.80
2017-04-24T03:32:47.570Z,5.08
2017-04-24T03:33:44.741Z,8.70
2017-04-24T03:34:41.936Z,8.33
2017-04-24T03:35:39.109Z,6.42
2017-04-24T03:36:36.275Z,5.97
2017-04-24T03:37:33.454Z,5.18
2017-04-24T03:38:30.625Z,8.18
2017-04-24T03:39:27.795Z,5.63
2017-04-24T03:40:24.986Z,5.92
2017-04-24T03:41:22.177Z,7.70
2017-04-24T03:42:19.350Z,7.43
2017-04-24T03:43:16.539Z,7.40
2017-04-24T03:44:13.712Z,5.73
2017-04-24T03:45:10.890Z,5.93
2017-04-24T03:46:08.086Z,4.67
2017-04-24T03:47:05.262Z,9.10
2017-04-24T03:48:02.442Z,4.85
2017-04-24T03:48:59.619Z,8.57
2017-04-24T03:49:57.035Z,9.23
2017-04-24T03:50:54.214Z,6.15
2017-04-24T03:51:51.427Z,6.18
2017-04-24T03:52:48.622Z,7.92
2017-04-24T03:53:46.103Z,6.27
2017-04-24T03:54:43.274Z,9.03
2017-04-24T03:55:40.450Z,6.28
2017-04-24T03:56:37.630Z,7.65
2017-04-24T03:57:34.834Z,9.47
2017-04-24T03:58:32.066Z,7.93
2017-04-24T03:59:29.230Z,7.52
2017-04-24T04:00:26.398Z,8.43
2017-04-24T04:01:23.593Z,5.67
2017-04-24T04:02:20.762Z,8.20
2017-04-24T04:03:17.975Z,7.98
2017-04-24T04:04:15.149Z,5.28
2017-04-24T04:05:12.326Z,12.68
2017-04-24T04:06:09.506Z,7.95
2017-04-24T04:07:06.679Z,6.78
2017-04-24T04:08:03.874Z,7.72
2017-04-24T04:09:01.089Z,6.22
2017-04-24T04:09:58.279Z,11.38
2017-04-24T04:10:55.445Z,6.77
2017-04-24T04:11:52.707Z,7.63
2017-04-24T04:12:49.964Z,10.00
2017-04-24T04:13:47.210Z,6.35
2017-04-24T04:14:44.388Z,5.97
2017-04-24T04:15:41.562Z,6.75
2017-04-24T04:16:38.722Z,5.42
2017-04-24T04:17:35.897Z,12.48
2017-04-24T04:18:33.110Z,10.25
2017-04-24T04:19:30.302Z,7.07
2017-04-24T04:20:27.470Z,6.80
2017-04-24T04:21:24.638Z,5.80
2017-04-24T04:22:21.821Z,6.72
2017-04-24T04:23:18.986Z,7.68
2017-04-24T04:24:16.198Z,6.85
2017-04-24T04:25:13.358Z,8.33
2017-04-24T04:26:10.518Z,7.28
2017-04-24T04:27:07.691Z,11.05
2017-04-24T04:28:04.863Z,9.27
2017-04-24T04:29:02.073Z,11.13
2017-04-24T04:29:59.254Z,8.25
2017-04-24T04:30:56.409Z,7.75
2017-04-24T04:31:53.595Z,9.97
2017-04-24T04:32:50.763Z,11.40
2017-04-24T04:33:47.930Z,11.10
2017-04-24T04:34:45.138Z,12.37
2017-04-24T04:35:42.297Z,8.48
2017-04-24T04:36:39.458Z,8.85
2017-04-24T04:37:36.626Z,8.70
2017-04-24T04:38:33.837Z,8.03
2017-04-24T04:39:31.002Z,7.03
2017-04-24T04:40:28.211Z,9.03
2017-04-24T04:41:25.373Z,7.02
2017-04-24T04:42:22.540Z,14.65
2017-04-24T04:43:19.709Z,7.93
2017-04-24T04:44:17.140Z,9.28
2017-04-24T04:45:14.341Z,10.23
2017-04-24T04:46:11.518Z,11.18
2017-04-24T04:47:08.679Z,7.77
2017-04-24T04:48:05.855Z,9.37
2017-04-24T04:49:03.021Z,11.68
2017-04-24T04:50:00.194Z,11.07
2017-04-24T04:50:57.389Z,9.55
2017-04-24T04:51:54.842Z,9.18
2017-04-24T04:52:52.022Z,10.50
2017-04-24T04:53:49.195Z,11.22
2017-04-24T04:54:46.362Z,8.58
2017-04-24T04:55:43.540Z,13.95
2017-04-24T04:56:40.723Z,9.45
2017-04-24T04:57:37.883Z,9.43
2017-04-24T04:58:35.046Z,7.02
2017-04-24T04:59:32.223Z,7.95
2017-04-24T05:00:29.394Z,9.77
2017-04-24T05:01:26.975Z,8.45
2017-04-24T05:02:24.190Z,8.57
2017-04-24T05:03:21.439Z,10.68
2017-04-24T05:04:18.614Z,7.55
2017-04-24T05:05:15.780Z,8.63
2017-04-24T05:06:12.953Z,8.28
2017-04-24T05:07:10.126Z,10.72
2017-04-24T05:08:07.420Z,11.48
2017-04-24T05:09:05.010Z,8.38
2017-04-24T05:10:02.178Z,8.33
2017-04-24T05:10:59.347Z,9.07
2017-04-24T05:11:56.531Z,10.62
2017-04-24T05:12:53.744Z,10.30
2017-04-24T05:13:51.367Z,17.62
2017-04-24T05:14:48.544Z,9.05
2017-04-24T05:15:45.718Z,9.58
2017-04-24T05:16:42.888Z,8.42
2017-04-24T05:17:40.081Z,10.50
2017-04-24T05:18:37.254Z,12.08
2017-04-24T05:19:34.466Z,10.13
2017-04-24T05:20:31.655Z,10.80
2017-04-24T05:21:28.831Z,8.22
2017-04-24T05:22:26.043Z,10.88
2017-04-24T05:23:23.218Z,8.45
2017-04-24T05:24:20.394Z,8.32
2017-04-24T05:25:17.591Z,7.27
2017-04-24T05:26:14.766Z,8.25
2017-04-24T05:27:11.942Z,9.87
2017-04-24T05:28:09.118Z,8.67
2017-04-24T05:29:06.295Z,10.05
2017-04-24T05:30:03.497Z,11.92
2017-04-24T05:31:00.682Z,8.97
2017-04-24T05:31:57.868Z,9.93
2017-04-24T05:32:55.574Z,11.78
2017-04-24T05:33:52.769Z,12.18
2017-04-24T05:34:49.950Z,15.03
2017-04-24T05:35:47.166Z,10.77
2017-04-24T05:36:44.348Z,9.82
2017-04-24T05:37:41.535Z,12.10
2017-04-24T05:38:38.728Z,10.72
2017-04-24T05:39:35.976Z,10.05
2017-04-24T05:40:33.190Z,12.20
2017-04-24T05:41:30.366Z,9.38
2017-04-24T05:42:27.554Z,10.28
2017-04-24T05:43:24.741Z,15.40
2017-04-24T05:44:21.927Z,9.90
2017-04-24T05:45:19.115Z,11.77
2017-04-24T05:46:16.323Z,11.88
2017-04-24T05:47:13.502Z,12.03
2017-04-24T05:48:10.685Z,11.13
2017-04-24T05:49:07.862Z,9.48
2017-04-24T05:50:05.054Z,12.25
2017-04-24T05:51:02.266Z,11.13
2017-04-24T05:51:59.458Z,11.75
2017-04-24T05:52:56.642Z,9.93
2017-04-24T05:53:53.920Z,9.98
2017-04-24T05:54:51.086Z,9.42
2017-04-24T05:55:48.274Z,9.48
2017-04-24T05:56:45.775Z,9.97
2017-04-24T05:57:42.952Z,10.82
2017-04-24T05:58:40.123Z,9.32
2017-04-24T05:59:37.298Z,10.22
2017-04-24T06:00:34.471Z,11.17
2017-04-24T06:01:31.674Z,10.90
2017-04-24T06:02:28.854Z,11.07
2017-04-24T06:03:26.082Z,9.67
2017-04-24T06:04:23.282Z,12.38
2017-04-24T06:05:20.474Z,13.13
2017-04-24T06:06:17.638Z,9.73
2017-04-24T06:07:14.860Z,14.12
2017-04-24T06:08:12.042Z,11.17
2017-04-24T06:09:09.228Z,10.05
2017-04-24T06:10:06.415Z,10.82
2017-04-24T06:11:03.595Z,10.30
2017-04-24T06:12:00.782Z,12.77
2017-04-24T06:12:58.269Z,14.28
2017-04-24T06:13:55.446Z,11.20
2017-04-24T06:14:52.615Z,9.28
2017-04-24T06:15:49.785Z,9.72
2017-04-24T06:16:46.962Z,11.12
2017-04-24T06:17:44.136Z,10.67
2017-04-24T06:18:41.335Z,8.37
2017-04-24T06:19:38.522Z,10.78
2017-04-24T06:20:35.710Z,10.98
2017-04-24T06:21:32.887Z,9.75
2017-04-24T06:22:30.086Z,9.53
2017-04-24T06:23:27.291Z,9.08
2017-04-24T06:24:24.466Z,10.35
2017-04-24T06:25:21.637Z,10.00
2017-04-24T06:26:18.805Z,11.03
2017-04-24T06:27:15.985Z,11.37
2017-04-24T06:28:13.166Z,9.73
2017-04-24T06:29:10.363Z,10.08
2017-04-24T06:30:07.549Z,10.35
2017-04-24T06:31:04.722Z,11.33
2017-04-24T06:32:01.894Z,10.23
2017-04-24T06:32:59.071Z,10.15
2017-04-24T06:33:56.255Z,10.23
2017-04-24T06:34:53.463Z,10.08
2017-04-24T06:35:50.642Z,12.87
2017-04-24T06:36:47.847Z,10.53
2017-04-24T06:37:45.030Z,10.57
2017-04-24T06:38:42.210Z,10.90
2017-04-24T06:39:39.686Z,12.30
2017-04-24T06:40:36.874Z,12.40
2017-04-24T06:41:34.062Z,12.83
2017-04-24T06:42:31.246Z,12.52
2017-04-24T06:43:28.445Z,12.08
2017-04-24T06:44:25.647Z,12.72
2017-04-24T06:45:22.870Z,13.05
2017-04-24T06:46:20.056Z,12.87
2017-04-24T06:47:17.237Z,14.25
2017-04-24T06:48:14.422Z,14.42
2017-04-24T06:49:11.608Z,12.78
2017-04-24T06:50:08.846Z,12.80
2017-04-24T06:51:06.071Z,13.43
2017-04-24T06:52:03.262Z,15.47
2017-04-24T06:53:00.453Z,12.60
2017-04-24T06:53:57.634Z,14.58
2017-04-24T06:54:54.830Z,18.03
2017-04-24T06:55:52.037Z,15.48
2017-04-24T06:56:49.221Z,15.63
2017-04-24T06:57:46.403Z,13.40
2017-04-24T06:58:43.601Z,14.75
2017-04-24T06:59:41.018Z,14.48
2017-04-24T07:00:38.238Z,16.20
2017-04-24T07:01:35.425Z,14.40
2017-04-24T07:02:32.614Z,15.35
2017-04-24T07:03:29.842Z,15.17
2017-04-24T07:04:27.018Z,15.77
2017-04-24T07:05:24.197Z,17.33
2017-04-24T07:06:21.418Z,15.23
2017-04-24T07:07:18.990Z,15.15
2017-04-24T07:08:16.182Z,17.25
2017-04-24T07:09:13.363Z,16.72
2017-04-24T07:10:10.546Z,16.22
2017-04-24T07:11:07.734Z,16.00
2017-04-24T07:12:04.942Z,17.07
2017-04-24T07:13:02.112Z,16.32
2017-04-24T07:13:59.302Z,17.92
2017-04-24T07:14:56.483Z,17.23
2017-04-24T07:15:53.655Z,17.07
2017-04-24T07:16:50.874Z,17.35
2017-04-24T07:17:48.556Z,16.75
2017-04-24T07:18:45.743Z,16.65
2017-04-24T07:19:42.931Z,16.67
2017-04-24T07:20:40.126Z,16.36
2017-04-24T07:21:37.319Z,16.97
2017-04-24T07:22:34.546Z,17.03
2017-04-24T07:23:31.750Z,15.40
2017-04-24T07:24:28.938Z,17.03
2017-04-24T07:25:26.135Z,17.41
2017-04-24T07:26:23.347Z,17.13
2017-04-24T07:27:20.566Z,18.11
2017-04-24T07:28:17.750Z,16.96
2017-04-24T07:29:15.241Z,16.17
2017-04-24T07:30:12.522Z,17.73
2017-04-24T07:31:09.702Z,16.97
2017-04-24T07:32:08.208Z,16.76
2017-04-24T07:33:05.423Z,16.70
2017-04-24T07:34:02.602Z,18.13
2017-04-24T07:34:59.785Z,16.54
2017-04-24T07:35:56.978Z,17.37
2017-04-24T07:36:54.160Z,16.61
2017-04-24T07:37:51.340Z,16.67
2017-04-24T07:38:48.626Z,16.69
2017-04-24T07:39:45.805Z,15.46
2017-04-24T07:40:42.982Z,16.53
2017-04-24T07:41:40.169Z,16.07
2017-04-24T07:42:37.355Z,17.33
2017-04-24T07:43:34.786Z,15.90
2017-04-24T07:44:32.000Z,16.27
2017-04-24T07:45:29.201Z,15.53
2017-04-24T07:46:26.395Z,15.91
2017-04-24T07:47:23.586Z,15.39
2017-04-24T07:48:20.771Z,15.63
2017-04-24T07:49:18.007Z,15.97
2017-04-24T07:50:15.193Z,16.16
2017-04-24T07:51:12.380Z,15.37
2017-04-24T07:52:09.573Z,14.86
2017-04-24T07:53:06.767Z,15.73
2017-04-24T07:54:03.974Z,14.51
2017-04-24T07:55:01.418Z,14.44
2017-04-24T07:55:58.628Z,13.57
2017-04-24T07:56:55.823Z,14.51
2017-04-24T07:57:53.005Z,13.03
2017-04-24T07:58:50.192Z,13.52
2017-04-24T07:59:47.428Z,13.73
2017-04-24T08:00:44.687Z,14.13
2017-04-24T08:01:41.874Z,13.99
2017-04-24T08:02:39.061Z,14.01
2017-04-24T08:04:40.009Z,13.36
2017-04-24T08:05:37.234Z,13.10
2017-04-24T08:06:34.890Z,12.17
2017-04-24T08:07:32.079Z,13.46
2017-04-24T08:08:29.266Z,12.29
2017-04-24T08:09:26.549Z,12.61
2017-04-24T08:10:23.755Z,13.06
2017-04-24T08:11:20.963Z,13.11
2017-04-24T08:12:18.163Z,12.40
2017-04-24T08:13:15.350Z,12.36
2017-04-24T08:14:12.819Z,12.43
2017-04-24T08:15:10.010Z,13.07
2017-04-24T08:16:07.234Z,12.11
2017-04-24T08:17:04.666Z,12.63
2017-04-24T08:18:01.862Z,11.54
2017-04-24T08:18:59.046Z,11.34
2017-04-24T08:19:56.223Z,12.77
2017-04-24T08:20:53.492Z,11.80
2017-04-24T08:21:50.702Z,11.10
2017-04-24T08:22:47.898Z,11.94
2017-04-24T08:23:45.082Z,12.29
2017-04-24T08:24:42.259Z,11.61
2017-04-24T08:25:39.438Z,11.93
2017-04-24T08:26:36.659Z,11.61
2017-04-24T08:27:33.831Z,11.53
2017-04-24T08:28:31.010Z,11.67
2017-04-24T08:29:28.198Z,11.37
2017-04-24T08:30:25.370Z,10.76
2017-04-24T08:31:22.559Z,10.97
2017-04-24T08:32:19.778Z,11.31
2017-04-24T08:33:16.966Z,11.87
2017-04-24T08:34:14.150Z,10.84
2017-04-24T08:35:11.386Z,12.57
2017-04-24T08:36:08.561Z,10.59
2017-04-24T08:37:05.766Z,11.76
2017-04-24T08:38:02.970Z,10.51
2017-04-24T08:39:00.151Z,13.64
2017-04-24T08:39:57.322Z,13.91
2017-04-24T08:40:54.500Z,9.97
2017-04-24T08:41:51.682Z,10.00
2017-04-24T08:42:49.090Z,9.63
2017-04-24T08:43:46.267Z,9.56
2017-04-24T08:44:43.438Z,9.39
2017-04-24T08:45:40.614Z,8.81
2017-04-24T08:46:37.782Z,8.89
2017-04-24T08:47:35.000Z,9.51
2017-04-24T08:48:32.170Z,10.23
2017-04-24T08:49:29.340Z,9.60
2017-04-24T08:50:26.509Z,8.69
2017-04-24T08:51:23.682Z,9.66
2017-04-24T08:52:20.860Z,10.33
2017-04-24T08:53:18.060Z,10.11
2017-04-24T08:54:15.233Z,10.57
2017-04-24T08:55:12.402Z,10.23
2017-04-24T08:56:09.574Z,9.99
2017-04-24T08:57:06.755Z,9.43
2017-04-24T08:58:03.922Z,9.41
2017-04-24T08:59:01.126Z,10.77
2017-04-24T08:59:58.309Z,9.96
2017-04-24T09:00:55.895Z,9.27
2017-04-24T09:01:53.069Z,10.34
2017-04-24T09:02:50.242Z,10.04
2017-04-24T09:03:47.726Z,10.51
2017-04-24T09:04:44.902Z,9.41
2017-04-24T09:05:42.085Z,11.01
2017-04-24T09:06:39.277Z,10.00
2017-04-24T09:07:36.458Z,9.49
2017-04-24T09:08:33.631Z,9.87
2017-04-24T09:09:30.835Z,10.91
2017-04-24T09:10:28.027Z,11.81
2017-04-24T09:11:25.212Z,10.26
2017-04-24T09:12:22.382Z,10.34
2017-04-24T09:13:19.571Z,11.96
2017-04-24T09:14:16.750Z,12.26
2017-04-24T09:15:13.965Z,12.40
2017-04-24T09:16:11.150Z,11.77
2017-04-24T09:17:08.330Z,11.44
2017-04-24T09:18:05.518Z,11.64
2017-04-24T09:19:02.819Z,10.77
2017-04-24T09:20:00.003Z,11.87
2017-04-24T09:20:57.218Z,12.49
2017-04-24T09:21:54.394Z,11.99
2017-04-24T09:22:51.597Z,12.00
2017-04-24T09:23:48.790Z,11.21
2017-04-24T09:24:45.977Z,11.37
2017-04-24T09:25:43.202Z,11.24
2017-04-24T09:26:40.387Z,11.77
2017-04-24T09:27:37.573Z,10.96
2017-04-24T09:28:34.775Z,11.45
2017-04-24T09:29:31.959Z,12.24
2017-04-24T09:30:29.139Z,10.96
2017-04-24T09:31:26.343Z,11.44
2017-04-24T09:32:23.522Z,10.83
2017-04-24T09:33:20.731Z,11.39
2017-04-24T09:34:17.919Z,12.51
2017-04-24T09:35:15.109Z,11.58
2017-04-24T09:36:12.330Z,10.78
2017-04-24T09:37:09.522Z,11.80
2017-04-24T09:38:06.707Z,11.19
2017-04-24T09:39:04.145Z,12.60
2017-04-24T09:40:01.333Z,10.83
2017-04-24T09:40:58.825Z,11.43
2017-04-24T09:41:56.034Z,12.13
2017-04-24T09:42:53.220Z,13.35
2017-04-24T09:43:50.410Z,10.77
2017-04-24T09:44:47.599Z,12.77
2017-04-24T09:45:44.787Z,11.80
2017-04-24T09:46:41.993Z,12.74
2017-04-24T09:47:39.187Z,12.57
2017-04-24T09:48:36.387Z,13.19
2017-04-24T09:49:33.582Z,11.52
2017-04-24T09:50:30.802Z,12.10
2017-04-24T09:51:28.389Z,10.96
2017-04-24T09:52:25.591Z,11.86
2017-04-24T09:53:22.774Z,11.00
2017-04-24T09:54:20.882Z,11.93
2017-04-24T09:55:18.078Z,11.40
2017-04-24T09:56:15.252Z,11.27
2017-04-24T09:57:12.472Z,11.93
2017-04-24T09:58:09.670Z,12.15
2017-04-24T09:59:06.862Z,11.09
2017-04-24T10:00:04.062Z,10.84
2017-04-24T10:01:01.251Z,12.33
2017-04-24T10:01:58.476Z,11.23
2017-04-24T10:02:55.679Z,12.30
2017-04-24T10:03:52.859Z,11.21
2017-04-24T10:04:50.042Z,11.72
2017-04-24T10:05:47.237Z,12.33
2017-04-24T10:06:44.438Z,12.02
2017-04-24T10:07:41.650Z,12.38
2017-04-24T10:08:39.146Z,12.17
2017-04-24T10:09:36.335Z,11.36
2017-04-24T10:10:33.515Z,12.46
2017-04-24T10:11:30.693Z,11.69
2017-04-24T10:12:27.894Z,11.76
2017-04-24T10:13:25.083Z,11.25
2017-04-24T10:14:22.279Z,11.97
2017-04-24T10:15:19.501Z,12.62
2017-04-24T10:16:16.703Z,13.03
2017-04-24T10:17:13.929Z,12.82
2017-04-24T10:18:11.143Z,12.28
2017-04-24T10:19:08.322Z,11.77
2017-04-24T10:20:05.498Z,12.45
2017-04-24T10:21:02.671Z,14.22
2017-04-24T10:22:00.094Z,12.72
2017-04-24T10:22:57.294Z,15.25
2017-04-24T10:23:54.482Z,13.48
2017-04-24T10:24:51.663Z,12.77
2017-04-24T10:25:48.869Z,12.68
2017-04-24T10:26:46.047Z,12.93
2017-04-24T10:27:43.230Z,13.15
2017-04-24T10:28:40.433Z,13.27
2017-04-24T10:29:37.610Z,12.58
2017-04-24T10:30:34.785Z,14.20
2017-04-24T10:31:31.972Z,13.93
2017-04-24T10:32:29.158Z,16.83
2017-04-24T10:33:26.371Z,13.07
2017-04-24T10:34:23.555Z,14.49
2017-04-24T10:35:20.733Z,15.51
2017-04-24T10:36:17.925Z,13.37
2017-04-24T10:37:15.118Z,13.34
2017-04-24T10:38:12.307Z,14.96
2017-04-24T10:39:09.506Z,14.47
2017-04-24T10:40:06.706Z,14.06
2017-04-24T10:41:03.887Z,13.17
2017-04-24T10:42:01.098Z,14.14
2017-04-24T10:42:58.282Z,14.51
2017-04-24T10:43:55.503Z,13.57
2017-04-24T10:44:52.685Z,14.13
2017-04-24T10:45:49.871Z,13.29
2017-04-24T10:46:47.062Z,14.29
2017-04-24T10:47:44.246Z,14.19
2017-04-24T10:48:41.430Z,13.80
2017-04-24T10:49:38.607Z,13.61
2017-04-24T10:50:35.798Z,15.11
2017-04-24T10:51:33.135Z,14.14
2017-04-24T10:52:30.322Z,14.91
2017-04-24T10:53:27.506Z,16.31
2017-04-24T10:54:24.703Z,14.52
2017-04-24T10:55:21.883Z,14.23
2017-04-24T10:56:19.074Z,15.30
2017-04-24T10:57:16.263Z,14.52
2017-04-24T10:58:13.468Z,14.58
2017-04-24T10:59:10.695Z,15.67
2017-04-24T11:00:07.892Z,13.32
2017-04-24T11:01:05.071Z,13.85
2017-04-24T11:02:02.253Z,15.07
2017-04-24T11:02:59.494Z,13.30
2017-04-24T11:03:56.675Z,15.35
2017-04-24T11:04:53.850Z,15.13
2017-04-24T11:05:51.023Z,14.12
2017-04-24T11:06:48.194Z,14.22
2017-04-24T11:07:45.378Z,14.52
2017-04-24T11:08:42.559Z,13.35
2017-04-24T11:09:39.738Z,13.18
2017-04-24T11:10:36.931Z,14.17
2017-04-24T11:11:34.114Z,13.55
2017-04-24T11:12:31.300Z,14.22
2017-04-24T11:13:28.484Z,13.57
2017-04-24T11:14:25.663Z,14.48
2017-04-24T11:15:22.860Z,15.40
2017-04-24T11:16:20.054Z,15.30
2017-04-24T11:17:17.231Z,15.67
2017-04-24T11:18:14.404Z,13.92
2017-04-24T11:19:11.599Z,14.42
2017-04-24T11:20:08.786Z,12.40
2017-04-24T11:21:06.561Z,13.42
2017-04-24T11:22:03.746Z,14.57
2017-04-24T11:23:00.969Z,13.66
2017-04-24T11:23:58.159Z,13.82
2017-04-24T11:24:55.350Z,13.50
2017-04-24T11:25:52.547Z,13.35
2017-04-24T11:26:49.742Z,13.98
2017-04-24T11:27:46.919Z,15.05
2017-04-24T11:28:44.111Z,13.98
2017-04-24T11:29:41.311Z,13.92
2017-04-24T11:30:38.495Z,15.00
2017-04-24T11:31:35.686Z,13.87
2017-04-24T11:32:32.869Z,13.15
2017-04-24T11:33:30.051Z,13.02
2017-04-24T11:34:27.236Z,13.25
2017-04-24T11:35:24.419Z,12.22
2017-04-24T11:36:21.607Z,13.10
2017-04-24T11:37:18.789Z,12.72
2017-04-24T11:38:15.987Z,13.05
2017-04-24T11:39:13.175Z,12.40
2017-04-24T11:40:10.410Z,15.83
2017-04-24T11:41:07.605Z,12.65
2017-04-24T11:42:04.797Z,12.50
2017-04-24T11:43:01.990Z,13.47
2017-04-24T11:43:59.184Z,13.63
2017-04-24T11:44:56.410Z,13.72
2017-04-24T11:45:53.602Z,13.70
2017-04-24T11:46:50.803Z,13.60
2017-04-24T11:47:47.992Z,12.53
2017-04-24T11:48:45.194Z,14.43
2017-04-24T11:49:42.772Z,12.48
2017-04-24T11:50:39.982Z,14.58
2017-04-24T11:51:37.165Z,13.72
2017-04-24T11:52:34.351Z,15.82
2017-04-24T11:53:31.531Z,12.70
2017-04-24T11:54:28.718Z,13.20
2017-04-24T11:55:25.930Z,12.97
2017-04-24T11:56:23.110Z,19.12
2017-04-24T11:57:20.298Z,13.15
2017-04-24T11:58:17.498Z,13.55
2017-04-24T11:59:14.697Z,11.42
2017-04-24T12:00:11.893Z,11.23
2017-04-24T12:01:09.095Z,10.13
2017-04-24T12:02:06.274Z,10.90
2017-04-24T12:03:03.466Z,11.30
2017-04-24T12:04:00.654Z,11.53
2017-04-24T12:04:57.835Z,11.57
2017-04-24T12:05:55.010Z,12.35
2017-04-24T12:06:52.193Z,12.00
2017-04-24T12:07:49.380Z,9.85
2017-04-24T12:08:46.806Z,12.05
2017-04-24T12:09:44.006Z,11.37
2017-04-24T12:10:41.217Z,14.37
2017-04-24T12:11:38.415Z,11.30
2017-04-24T12:12:35.622Z,12.90
2017-04-24T12:13:32.810Z,11.02
2017-04-24T12:14:30.266Z,13.60
2017-04-24T12:15:27.478Z,11.58
2017-04-24T12:16:24.653Z,10.63
2017-04-24T12:17:22.145Z,11.20
2017-04-24T12:18:19.318Z,10.43
2017-04-24T12:19:16.523Z,12.72
2017-04-24T12:20:13.697Z,11.08
2017-04-24T12:21:10.906Z,10.03
2017-04-24T12:22:08.095Z,10.67
2017-04-24T12:23:05.346Z,11.92
2017-04-24T12:24:02.520Z,11.30
2017-04-24T12:24:59.706Z,13.15
2017-04-24T12:25:56.897Z,10.40
2017-04-24T12:26:54.102Z,10.73
2017-04-24T12:27:51.343Z,11.27